Priozersk, Russia
Current Conditions -  °F | °C
As of 3:20 AM on Tuesday 21 Oct 2014 (Local Time) from EFLP Reporting Station
Broken Clouds Broken Clouds  
Wind Chill: 23°   Ceiling: 2700
Heat Index: 32°   Visibility: 6mi
Dew Point: 28°   Wind: 13mph
Humidity: 87%   Direction: 50°NE
Pressure: 29.59"   Gusts: NA
Location:  61.04°N, 30.14°E
Report Text: EFLP 210020Z AUTO 05011KT 9999 FEW016 SCT023 BKN027 00/M02 Q1002
Loading
Personal Weather Stations






























Interactive Weather Map
Tropical Storm Tracking
New forecast layout! Learn more

10-Day Weather Forecast

Advertisements
Track Severe Weather on mobile